Dauphin Airport, Manitoba

Past 24 Hour Conditions

This table is a summary of hourly weather conditions for the past 24 hours. This summary includes the following parameters: temperature, humidity, dew point, wind speed and direction, air pressure, visibility and/or wind chill and humidex.
Date / Time
(CDT)
Conditions Temp (°F) Humidity (%) Dew Point (°F) Wind (mph) Pressure (inches) Vis (mi) Wind Chill
17 April 2014
11:00 N/A N/A N/A N/A N/A N/A N/A *
10:00 Sunny 24 72 16 E 3 30.5 10 20
9:00 N/A 21 69 12 N 2 30.5 N/A 18
8:00 Sunny 16 81 11 W 6 30.5 10 8
7:00 Sunny 14   85 10 W 7 30.5 10 4
6:00 Clear 14   86 11 W 3 30.5 10 9
5:00 Clear 14   89 12 W 5 30.5 10 6
4:00 Clear 15 91 13 W 5 30.5 10 7
3:00 Clear 18 83 14 calm 30.5 10 *
2:00 Clear 20 71 12 ESE 3 30.5 10 15
1:00 Clear 19 73 12 SE 6 30.5 10 11
00:00 Clear 19 86 16 SE 6 30.5 10 12
16 April 2014
23:00 Clear 21 77 15 ENE 5 30.5 10 15
22:00 Clear 22 73 15 NNE 5 30.5 10 15
21:00 Clear 24 63 14 NNE 7 30.5 10 16
20:00 Sunny 28 49 11 NE 5 30.5 10 22
19:00 Sunny 29   38 6 NE 7 30.4 10 22
18:00 Sunny 29   34 4 ENE 6 30.4 10 23
17:00 Sunny 29   37 6 NE 9 30.4 10 21
16:00 Sunny 29   39 7 ENE 11 30.4 10 20
15:00 Sunny 29   37 6 ENE 13 gust 18 30.4 10 18
14:00 Sunny 27 48 10 NE 8 gust 17 30.4 10 19
13:00 Sunny 25 53 10 NE 9 30.4 10 15
12:00 Sunny 23 58 10 NE 9 30.4 10 13
11:00 Sunny 21 57 8 NE 7 30.4 10 12
N/A
Not available
 ↑ 
Highest temperature
 ↓ 
Lowest temperature
*
Value not significant.

If you require additional historical weather information, please visit Climate Data Online.